sensor_id;sensor_type;location;lat;lon;timestamp;temperature;humidity
71173;DHT22;58875;51.996;4.504;2023-09-12T00:01:06;20.34;83.01
71173;DHT22;58875;51.996;4.504;2023-09-12T00:03:34;20.31;83.04
71173;DHT22;58875;51.996;4.504;2023-09-12T00:06:01;20.31;83.14
71173;DHT22;58875;51.996;4.504;2023-09-12T00:08:27;20.32;83.25
71173;DHT22;58875;51.996;4.504;2023-09-12T00:11:06;20.34;83.28
71173;DHT22;58875;51.996;4.504;2023-09-12T00:13:35;20.32;83.19
71173;DHT22;58875;51.996;4.504;2023-09-12T00:16:01;20.32;83.26
71173;DHT22;58875;51.996;4.504;2023-09-12T00:18:27;20.29;83.34
71173;DHT22;58875;51.996;4.504;2023-09-12T00:20:53;20.26;83.48
71173;DHT22;58875;51.996;4.504;2023-09-12T00:23:21;20.25;83.52
71173;DHT22;58875;51.996;4.504;2023-09-12T00:25:46;20.21;83.68
71173;DHT22;58875;51.996;4.504;2023-09-12T00:28:12;20.17;83.54
71173;DHT22;58875;51.996;4.504;2023-09-12T00:30:37;20.17;83.49
71173;DHT22;58875;51.996;4.504;2023-09-12T00:33:03;20.14;83.65
71173;DHT22;58875;51.996;4.504;2023-09-12T00:35:29;20.14;83.77
71173;DHT22;58875;51.996;4.504;2023-09-12T00:37:54;20.14;83.88
71173;DHT22;58875;51.996;4.504;2023-09-12T00:40:20;20.07;83.94
71173;DHT22;58875;51.996;4.504;2023-09-12T00:42:45;20.08;83.95
71173;DHT22;58875;51.996;4.504;2023-09-12T00:45:11;20.04;84.26
71173;DHT22;58875;51.996;4.504;2023-09-12T00:47:37;20.01;84.36
71173;DHT22;58875;51.996;4.504;2023-09-12T00:50:05;20.04;84.24
71173;DHT22;58875;51.996;4.504;2023-09-12T00:52:33;19.93;84.54
71173;DHT22;58875;51.996;4.504;2023-09-12T00:55:00;19.94;84.76
71173;DHT22;58875;51.996;4.504;2023-09-12T00:57:26;19.87;84.82
71173;DHT22;58875;51.996;4.504;2023-09-12T00:59:53;19.85;84.94
71173;DHT22;58875;51.996;4.504;2023-09-12T01:02:19;19.87;84.86
71173;DHT22;58875;51.996;4.504;2023-09-12T01:07:12;19.84;84.72
71173;DHT22;58875;51.996;4.504;2023-09-12T01:09:39;19.83;84.75
71173;DHT22;58875;51.996;4.504;2023-09-12T01:12:06;19.73;84.96
71173;DHT22;58875;51.996;4.504;2023-09-12T01:14:31;19.67;84.90
71173;DHT22;58875;51.996;4.504;2023-09-12T01:16:57;19.57;85.15
71173;DHT22;58875;51.996;4.504;2023-09-12T01:19:24;19.59;85.42
71173;DHT22;58875;51.996;4.504;2023-09-12T01:22:24;19.59;85.57
71173;DHT22;58875;51.996;4.504;2023-09-12T01:27:35;19.59;85.02
71173;DHT22;58875;51.996;4.504;2023-09-12T01:30:05;19.56;85.07
71173;DHT22;58875;51.996;4.504;2023-09-12T01:32:32;19.57;85.27
71173;DHT22;58875;51.996;4.504;2023-09-12T01:34:59;19.57;84.97
71173;DHT22;58875;51.996;4.504;2023-09-12T01:37:25;19.57;85.00
71173;DHT22;58875;51.996;4.504;2023-09-12T01:39:51;19.56;84.89
71173;DHT22;58875;51.996;4.504;2023-09-12T01:42:20;19.54;84.80
71173;DHT22;58875;51.996;4.504;2023-09-12T01:44:52;19.57;84.47
71173;DHT22;58875;51.996;4.504;2023-09-12T01:47:20;19.50;84.32
71173;DHT22;58875;51.996;4.504;2023-09-12T01:49:51;19.47;84.46
71173;DHT22;58875;51.996;4.504;2023-09-12T01:52:19;19.50;84.54
71173;DHT22;58875;51.996;4.504;2023-09-12T01:54:45;19.52;84.34
71173;DHT22;58875;51.996;4.504;2023-09-12T01:57:13;19.56;84.25
71173;DHT22;58875;51.996;4.504;2023-09-12T01:59:40;19.57;84.07
71173;DHT22;58875;51.996;4.504;2023-09-12T02:02:05;19.59;84.21
71173;DHT22;58875;51.996;4.504;2023-09-12T02:04:32;19.57;84.16
71173;DHT22;58875;51.996;4.504;2023-09-12T02:06:57;19.54;83.99
71173;DHT22;58875;51.996;4.504;2023-09-12T02:09:23;19.56;84.08
71173;DHT22;58875;51.996;4.504;2023-09-12T02:11:51;19.53;83.79
71173;DHT22;58875;51.996;4.504;2023-09-12T02:14:16;19.50;83.71
71173;DHT22;58875;51.996;4.504;2023-09-12T02:16:43;19.46;83.70
71173;DHT22;58875;51.996;4.504;2023-09-12T02:19:09;19.49;83.77
71173;DHT22;58875;51.996;4.504;2023-09-12T02:21:35;19.43;83.65
71173;DHT22;58875;51.996;4.504;2023-09-12T02:24:00;19.43;83.61
71173;DHT22;58875;51.996;4.504;2023-09-12T02:26:26;19.40;83.67
71173;DHT22;58875;51.996;4.504;2023-09-12T02:28:51;19.40;83.74
71173;DHT22;58875;51.996;4.504;2023-09-12T02:31:17;19.37;83.52
71173;DHT22;58875;51.996;4.504;2023-09-12T02:33:43;19.30;83.24
71173;DHT22;58875;51.996;4.504;2023-09-12T02:36:08;19.25;83.48
71173;DHT22;58875;51.996;4.504;2023-09-12T02:38:34;19.26;83.80
71173;DHT22;58875;51.996;4.504;2023-09-12T02:40:59;19.30;83.75
71173;DHT22;58875;51.996;4.504;2023-09-12T02:43:25;19.33;83.85
71173;DHT22;58875;51.996;4.504;2023-09-12T02:45:50;19.36;83.94
71173;DHT22;58875;51.996;4.504;2023-09-12T02:48:16;19.36;83.77
71173;DHT22;58875;51.996;4.504;2023-09-12T02:50:41;19.39;83.79
71173;DHT22;58875;51.996;4.504;2023-09-12T02:53:07;19.37;83.95
71173;DHT22;58875;51.996;4.504;2023-09-12T02:55:33;19.42;83.94
71173;DHT22;58875;51.996;4.504;2023-09-12T02:57:58;19.42;83.88
71173;DHT22;58875;51.996;4.504;2023-09-12T03:00:24;19.43;83.90
71173;DHT22;58875;51.996;4.504;2023-09-12T03:02:50;19.54;84.06
71173;DHT22;58875;51.996;4.504;2023-09-12T03:05:15;19.54;84.18
71173;DHT22;58875;51.996;4.504;2023-09-12T03:07:41;19.57;84.00
71173;DHT22;58875;51.996;4.504;2023-09-12T03:10:06;19.62;84.02
71173;DHT22;58875;51.996;4.504;2023-09-12T03:12:32;19.57;83.74
71173;DHT22;58875;51.996;4.504;2023-09-12T03:14:58;19.57;84.09
71173;DHT22;58875;51.996;4.504;2023-09-12T03:17:23;19.62;84.14
71173;DHT22;58875;51.996;4.504;2023-09-12T03:19:48;19.62;83.97
71173;DHT22;58875;51.996;4.504;2023-09-12T03:22:14;19.63;84.07
71173;DHT22;58875;51.996;4.504;2023-09-12T03:24:39;19.67;84.01
71173;DHT22;58875;51.996;4.504;2023-09-12T03:27:05;19.70;84.01
71173;DHT22;58875;51.996;4.504;2023-09-12T03:29:30;19.70;83.71
71173;DHT22;58875;51.996;4.504;2023-09-12T03:31:56;19.67;83.82
71173;DHT22;58875;51.996;4.504;2023-09-12T03:34:21;19.67;83.70
71173;DHT22;58875;51.996;4.504;2023-09-12T03:36:47;19.69;84.05
71173;DHT22;58875;51.996;4.504;2023-09-12T03:39:12;19.73;83.83
71173;DHT22;58875;51.996;4.504;2023-09-12T03:41:39;19.74;84.05
71173;DHT22;58875;51.996;4.504;2023-09-12T03:44:05;19.80;84.03
71173;DHT22;58875;51.996;4.504;2023-09-12T03:46:30;19.78;84.12
71173;DHT22;58875;51.996;4.504;2023-09-12T03:48:56;19.85;84.14
71173;DHT22;58875;51.996;4.504;2023-09-12T03:51:21;19.85;83.88
71173;DHT22;58875;51.996;4.504;2023-09-12T03:53:47;19.87;83.83
71173;DHT22;58875;51.996;4.504;2023-09-12T03:56:15;19.90;83.85
71173;DHT22;58875;51.996;4.504;2023-09-12T03:58:41;19.91;83.99
71173;DHT22;58875;51.996;4.504;2023-09-12T04:01:06;19.95;84.08
71173;DHT22;58875;51.996;4.504;2023-09-12T04:03:32;20.00;84.05
71173;DHT22;58875;51.996;4.504;2023-09-12T04:05:57;20.01;83.98
71173;DHT22;58875;51.996;4.504;2023-09-12T04:08:23;20.00;83.88
71173;DHT22;58875;51.996;4.504;2023-09-12T04:10:48;19.98;83.85
71173;DHT22;58875;51.996;4.504;2023-09-12T04:13:14;20.03;84.02
71173;DHT22;58875;51.996;4.504;2023-09-12T04:15:39;20.01;84.04
71173;DHT22;58875;51.996;4.504;2023-09-12T04:18:05;20.04;84.06
71173;DHT22;58875;51.996;4.504;2023-09-12T04:20:30;20.07;84.17
71173;DHT22;58875;51.996;4.504;2023-09-12T04:22:56;20.07;84.04
71173;DHT22;58875;51.996;4.504;2023-09-12T04:25:21;20.08;84.20
71173;DHT22;58875;51.996;4.504;2023-09-12T04:27:47;20.10;84.23
71173;DHT22;58875;51.996;4.504;2023-09-12T04:30:13;20.11;84.15
71173;DHT22;58875;51.996;4.504;2023-09-12T04:32:38;20.14;84.18
71173;DHT22;58875;51.996;4.504;2023-09-12T04:35:04;20.17;84.34
71173;DHT22;58875;51.996;4.504;2023-09-12T04:37:30;20.18;84.32
71173;DHT22;58875;51.996;4.504;2023-09-12T04:39:55;20.18;84.43
71173;DHT22;58875;51.996;4.504;2023-09-12T04:42:22;20.21;84.33
71173;DHT22;58875;51.996;4.504;2023-09-12T04:44:48;20.25;84.46
71173;DHT22;58875;51.996;4.504;2023-09-12T04:47:13;20.28;84.37
71173;DHT22;58875;51.996;4.504;2023-09-12T04:49:39;20.31;84.31
71173;DHT22;58875;51.996;4.504;2023-09-12T04:52:05;20.34;84.30
71173;DHT22;58875;51.996;4.504;2023-09-12T04:54:31;20.34;84.19
71173;DHT22;58875;51.996;4.504;2023-09-12T04:56:57;20.38;84.22
71173;DHT22;58875;51.996;4.504;2023-09-12T04:59:22;20.36;84.19
71173;DHT22;58875;51.996;4.504;2023-09-12T05:01:48;20.41;84.21
71173;DHT22;58875;51.996;4.504;2023-09-12T05:04:13;20.44;84.29
71173;DHT22;58875;51.996;4.504;2023-09-12T05:06:39;20.45;84.09
71173;DHT22;58875;51.996;4.504;2023-09-12T05:09:05;20.49;84.16
71173;DHT22;58875;51.996;4.504;2023-09-12T05:11:31;20.51;84.22
71173;DHT22;58875;51.996;4.504;2023-09-12T05:13:56;20.49;84.04
71173;DHT22;58875;51.996;4.504;2023-09-12T05:16:22;20.51;84.24
71173;DHT22;58875;51.996;4.504;2023-09-12T05:18:47;20.51;84.15
71173;DHT22;58875;51.996;4.504;2023-09-12T05:21:14;20.53;84.09
71173;DHT22;58875;51.996;4.504;2023-09-12T05:23:40;20.55;84.11
71173;DHT22;58875;51.996;4.504;2023-09-12T05:26:05;20.52;84.14
71173;DHT22;58875;51.996;4.504;2023-09-12T05:28:31;20.55;84.18
71173;DHT22;58875;51.996;4.504;2023-09-12T05:30:57;20.56;84.11
71173;DHT22;58875;51.996;4.504;2023-09-12T05:33:22;20.59;84.19
71173;DHT22;58875;51.996;4.504;2023-09-12T05:35:48;20.59;84.27
71173;DHT22;58875;51.996;4.504;2023-09-12T05:38:13;20.59;84.30
71173;DHT22;58875;51.996;4.504;2023-09-12T05:40:39;20.62;84.33
71173;DHT22;58875;51.996;4.504;2023-09-12T05:43:04;20.68;84.29
71173;DHT22;58875;51.996;4.504;2023-09-12T05:45:30;20.71;84.16
71173;DHT22;58875;51.996;4.504;2023-09-12T05:47:58;20.65;84.53
71173;DHT22;58875;51.996;4.504;2023-09-12T05:50:24;20.65;84.45
71173;DHT22;58875;51.996;4.504;2023-09-12T05:52:49;20.59;84.62
71173;DHT22;58875;51.996;4.504;2023-09-12T05:55:15;20.63;84.82
71173;DHT22;58875;51.996;4.504;2023-09-12T05:57:41;20.73;84.82
71173;DHT22;58875;51.996;4.504;2023-09-12T06:00:07;20.77;84.71
71173;DHT22;58875;51.996;4.504;2023-09-12T06:02:38;20.83;84.64
71173;DHT22;58875;51.996;4.504;2023-09-12T06:05:04;20.86;84.43
71173;DHT22;58875;51.996;4.504;2023-09-12T06:07:30;20.89;84.39
71173;DHT22;58875;51.996;4.504;2023-09-12T06:09:58;20.93;84.32
71173;DHT22;58875;51.996;4.504;2023-09-12T06:12:23;20.93;84.29
71173;DHT22;58875;51.996;4.504;2023-09-12T06:14:51;20.97;84.14
71173;DHT22;58875;51.996;4.504;2023-09-12T06:17:16;20.93;84.28
71173;DHT22;58875;51.996;4.504;2023-09-12T06:19:42;20.93;84.36
71173;DHT22;58875;51.996;4.504;2023-09-12T06:22:07;20.99;84.22
71173;DHT22;58875;51.996;4.504;2023-09-12T06:24:33;21.00;84.13
71173;DHT22;58875;51.996;4.504;2023-09-12T06:26:58;21.00;84.17
71173;DHT22;58875;51.996;4.504;2023-09-12T06:29:24;21.06;84.20
71173;DHT22;58875;51.996;4.504;2023-09-12T06:31:49;21.10;84.02
71173;DHT22;58875;51.996;4.504;2023-09-12T06:34:15;21.07;84.00
71173;DHT22;58875;51.996;4.504;2023-09-12T06:36:40;21.13;84.01
71173;DHT22;58875;51.996;4.504;2023-09-12T06:39:10;21.11;83.97
71173;DHT22;58875;51.996;4.504;2023-09-12T06:41:35;21.20;84.15
71173;DHT22;58875;51.996;4.504;2023-09-12T06:44:01;21.23;84.06
71173;DHT22;58875;51.996;4.504;2023-09-12T06:46:28;21.35;84.15
71173;DHT22;58875;51.996;4.504;2023-09-12T06:48:56;21.41;83.89
71173;DHT22;58875;51.996;4.504;2023-09-12T06:51:25;21.40;83.95
71173;DHT22;58875;51.996;4.504;2023-09-12T06:53:51;21.34;83.65
71173;DHT22;58875;51.996;4.504;2023-09-12T06:56:17;21.27;83.47
71173;DHT22;58875;51.996;4.504;2023-09-12T06:58:43;21.24;83.67
71173;DHT22;58875;51.996;4.504;2023-09-12T07:01:08;21.14;83.61
71173;DHT22;58875;51.996;4.504;2023-09-12T07:03:35;21.19;83.77
71173;DHT22;58875;51.996;4.504;2023-09-12T07:06:02;21.20;83.70
71173;DHT22;58875;51.996;4.504;2023-09-12T07:08:30;21.26;83.68
71173;DHT22;58875;51.996;4.504;2023-09-12T07:10:56;21.27;83.45
71173;DHT22;58875;51.996;4.504;2023-09-12T07:13:23;21.27;83.40
71173;DHT22;58875;51.996;4.504;2023-09-12T07:15:52;21.14;82.85
71173;DHT22;58875;51.996;4.504;2023-09-12T07:18:18;21.11;83.00
71173;DHT22;58875;51.996;4.504;2023-09-12T07:20:45;21.11;83.39
71173;DHT22;58875;51.996;4.504;2023-09-12T07:23:10;21.16;83.14
71173;DHT22;58875;51.996;4.504;2023-09-12T07:25:41;21.27;83.34
71173;DHT22;58875;51.996;4.504;2023-09-12T07:28:09;21.23;82.65
71173;DHT22;58875;51.996;4.504;2023-09-12T07:30:35;21.22;82.91
71173;DHT22;58875;51.996;4.504;2023-09-12T07:33:03;21.30;83.05
71173;DHT22;58875;51.996;4.504;2023-09-12T07:35:32;21.40;83.26
71173;DHT22;58875;51.996;4.504;2023-09-12T07:37:57;21.37;82.07
71173;DHT22;58875;51.996;4.504;2023-09-12T07:40:23;21.34;82.33
71173;DHT22;58875;51.996;4.504;2023-09-12T07:42:48;21.28;82.17
71173;DHT22;58875;51.996;4.504;2023-09-12T07:45:14;21.28;82.50
71173;DHT22;58875;51.996;4.504;2023-09-12T07:47:39;21.45;82.68
71173;DHT22;58875;51.996;4.504;2023-09-12T07:50:05;21.53;82.33
71173;DHT22;58875;51.996;4.504;2023-09-12T07:52:32;21.54;81.54
71173;DHT22;58875;51.996;4.504;2023-09-12T07:55:02;21.64;81.95
71173;DHT22;58875;51.996;4.504;2023-09-12T07:57:29;21.73;81.46
71173;DHT22;58875;51.996;4.504;2023-09-12T07:59:57;21.88;81.51
71173;DHT22;58875;51.996;4.504;2023-09-12T08:02:23;22.02;80.66
71173;DHT22;58875;51.996;4.504;2023-09-12T08:04:52;22.16;81.32
71173;DHT22;58875;51.996;4.504;2023-09-12T08:07:19;22.37;80.62
71173;DHT22;58875;51.996;4.504;2023-09-12T08:09:56;22.49;79.80
71173;DHT22;58875;51.996;4.504;2023-09-12T08:12:27;22.53;79.13
71173;DHT22;58875;51.996;4.504;2023-09-12T08:14:56;22.57;79.41
71173;DHT22;58875;51.996;4.504;2023-09-12T08:17:22;22.63;78.96
71173;DHT22;58875;51.996;4.504;2023-09-12T08:19:48;22.86;79.92
71173;DHT22;58875;51.996;4.504;2023-09-12T08:22:14;22.93;78.26
71173;DHT22;58875;51.996;4.504;2023-09-12T08:24:40;22.91;78.02
71173;DHT22;58875;51.996;4.504;2023-09-12T08:27:06;23.05;78.65
71173;DHT22;58875;51.996;4.504;2023-09-12T08:29:33;22.98;77.58
71173;DHT22;58875;51.996;4.504;2023-09-12T08:32:01;23.19;78.16
71173;DHT22;58875;51.996;4.504;2023-09-12T08:34:27;23.48;77.11
71173;DHT22;58875;51.996;4.504;2023-09-12T08:36:53;23.52;75.96
71173;DHT22;58875;51.996;4.504;2023-09-12T08:39:28;23.38;76.86
71173;DHT22;58875;51.996;4.504;2023-09-12T08:41:54;23.18;76.77
71173;DHT22;58875;51.996;4.504;2023-09-12T08:44:23;23.12;75.79
71173;DHT22;58875;51.996;4.504;2023-09-12T08:46:48;24.17;73.81
71173;DHT22;58875;51.996;4.504;2023-09-12T08:49:15;25.04;72.17
71173;DHT22;58875;51.996;4.504;2023-09-12T08:51:41;25.66;71.51
71173;DHT22;58875;51.996;4.504;2023-09-12T08:54:08;25.87;69.19
71173;DHT22;58875;51.996;4.504;2023-09-12T08:56:36;25.88;70.12
71173;DHT22;58875;51.996;4.504;2023-09-12T08:59:07;25.30;68.81
71173;DHT22;58875;51.996;4.504;2023-09-12T09:01:38;24.91;71.39
71173;DHT22;58875;51.996;4.504;2023-09-12T09:04:05;24.96;72.42
71173;DHT22;58875;51.996;4.504;2023-09-12T09:06:31;24.75;72.18
71173;DHT22;58875;51.996;4.504;2023-09-12T09:09:05;24.26;73.13
71173;DHT22;58875;51.996;4.504;2023-09-12T09:11:31;24.12;72.96
71173;DHT22;58875;51.996;4.504;2023-09-12T09:13:56;23.80;74.41
71173;DHT22;58875;51.996;4.504;2023-09-12T09:16:23;24.12;75.27
71173;DHT22;58875;51.996;4.504;2023-09-12T09:19:02;24.37;74.04
71173;DHT22;58875;51.996;4.504;2023-09-12T09:21:33;24.27;72.64
71173;DHT22;58875;51.996;4.504;2023-09-12T09:24:07;24.50;73.51
71173;DHT22;58875;51.996;4.504;2023-09-12T09:29:15;24.17;72.14
71173;DHT22;58875;51.996;4.504;2023-09-12T09:31:42;23.93;73.54
71173;DHT22;58875;51.996;4.504;2023-09-12T09:34:16;23.90;73.57
71173;DHT22;58875;51.996;4.504;2023-09-12T09:36:49;24.18;74.57
71173;DHT22;58875;51.996;4.504;2023-09-12T09:39:16;24.17;73.16
71173;DHT22;58875;51.996;4.504;2023-09-12T09:41:42;24.09;73.66
71173;DHT22;58875;51.996;4.504;2023-09-12T09:44:08;24.48;74.00
71173;DHT22;58875;51.996;4.504;2023-09-12T09:46:37;24.60;72.95
71173;DHT22;58875;51.996;4.504;2023-09-12T09:49:03;24.60;72.64
71173;DHT22;58875;51.996;4.504;2023-09-12T09:51:30;24.85;71.77
71173;DHT22;58875;51.996;4.504;2023-09-12T09:53:57;25.02;71.11
71173;DHT22;58875;51.996;4.504;2023-09-12T09:56:24;25.19;70.81
71173;DHT22;58875;51.996;4.504;2023-09-12T09:58:55;25.27;71.05
71173;DHT22;58875;51.996;4.504;2023-09-12T10:01:23;25.32;70.18
71173;DHT22;58875;51.996;4.504;2023-09-12T10:03:51;25.25;69.81
71173;DHT22;58875;51.996;4.504;2023-09-12T10:06:18;25.33;69.63
71173;DHT22;58875;51.996;4.504;2023-09-12T10:08:45;25.27;69.83
71173;DHT22;58875;51.996;4.504;2023-09-12T10:11:14;25.42;70.35
71173;DHT22;58875;51.996;4.504;2023-09-12T10:13:53;25.56;70.58
71173;DHT22;58875;51.996;4.504;2023-09-12T10:16:24;25.67;69.45
71173;DHT22;58875;51.996;4.504;2023-09-12T10:21:51;25.90;69.16
71173;DHT22;58875;51.996;4.504;2023-09-12T10:24:19;26.02;67.37
71173;DHT22;58875;51.996;4.504;2023-09-12T10:26:52;25.83;68.15
71173;DHT22;58875;51.996;4.504;2023-09-12T10:29:20;25.70;68.36
71173;DHT22;58875;51.996;4.504;2023-09-12T10:31:48;25.53;68.43
71173;DHT22;58875;51.996;4.504;2023-09-12T10:34:15;25.49;69.21
71173;DHT22;58875;51.996;4.504;2023-09-12T10:36:42;25.63;69.43
71173;DHT22;58875;51.996;4.504;2023-09-12T10:39:10;25.56;69.21
71173;DHT22;58875;51.996;4.504;2023-09-12T10:41:38;25.27;69.62
71173;DHT22;58875;51.996;4.504;2023-09-12T10:44:09;25.18;70.43
71173;DHT22;58875;51.996;4.504;2023-09-12T10:46:42;25.26;69.19
71173;DHT22;58875;51.996;4.504;2023-09-12T10:49:10;25.39;70.14
71173;DHT22;58875;51.996;4.504;2023-09-12T10:51:40;25.42;68.65
71173;DHT22;58875;51.996;4.504;2023-09-12T10:54:07;25.36;68.87
71173;DHT22;58875;51.996;4.504;2023-09-12T10:56:36;25.06;68.07
71173;DHT22;58875;51.996;4.504;2023-09-12T11:01:36;24.69;70.16
71173;DHT22;58875;51.996;4.504;2023-09-12T11:06:54;24.27;70.15
71173;DHT22;58875;51.996;4.504;2023-09-12T11:09:26;24.33;70.54
71173;DHT22;58875;51.996;4.504;2023-09-12T11:14:21;24.36;71.13
71173;DHT22;58875;51.996;4.504;2023-09-12T11:19:48;24.00;70.73
71173;DHT22;58875;51.996;4.504;2023-09-12T11:24:50;23.82;71.39
71173;DHT22;58875;51.996;4.504;2023-09-12T11:27:16;23.90;71.11
71173;DHT22;58875;51.996;4.504;2023-09-12T11:29:45;23.86;72.67
71173;DHT22;58875;51.996;4.504;2023-09-12T11:32:30;23.99;73.38
71173;DHT22;58875;51.996;4.504;2023-09-12T11:34:56;23.95;73.71
71173;DHT22;58875;51.996;4.504;2023-09-12T11:37:26;23.82;75.66
71173;DHT22;58875;51.996;4.504;2023-09-12T11:39:54;23.59;75.95
71173;DHT22;58875;51.996;4.504;2023-09-12T11:42:20;23.45;77.23
71173;DHT22;58875;51.996;4.504;2023-09-12T11:44:49;23.18;76.73
71173;DHT22;58875;51.996;4.504;2023-09-12T11:47:16;23.04;77.42
71173;DHT22;58875;51.996;4.504;2023-09-12T11:49:42;22.97;77.55
71173;DHT22;58875;51.996;4.504;2023-09-12T11:52:09;22.93;78.53
71173;DHT22;58875;51.996;4.504;2023-09-12T11:54:35;23.10;79.43
71173;DHT22;58875;51.996;4.504;2023-09-12T11:57:02;23.28;79.57
71173;DHT22;58875;51.996;4.504;2023-09-12T11:59:31;23.29;78.55
71173;DHT22;58875;51.996;4.504;2023-09-12T12:01:57;23.22;78.79
71173;DHT22;58875;51.996;4.504;2023-09-12T12:04:24;23.21;78.48
71173;DHT22;58875;51.996;4.504;2023-09-12T12:06:52;23.32;79.81
71173;DHT22;58875;51.996;4.504;2023-09-12T12:09:18;23.39;77.63
71173;DHT22;58875;51.996;4.504;2023-09-12T12:11:48;23.37;79.28
71173;DHT22;58875;51.996;4.504;2023-09-12T12:14:15;23.48;78.68
71173;DHT22;58875;51.996;4.504;2023-09-12T12:16:42;23.44;77.66
71173;DHT22;58875;51.996;4.504;2023-09-12T12:19:09;23.45;78.14
71173;DHT22;58875;51.996;4.504;2023-09-12T12:21:35;23.48;79.31
71173;DHT22;58875;51.996;4.504;2023-09-12T12:24:01;23.58;78.77
71173;DHT22;58875;51.996;4.504;2023-09-12T12:26:29;23.63;79.24
71173;DHT22;58875;51.996;4.504;2023-09-12T12:28:55;23.67;78.66
71173;DHT22;58875;51.996;4.504;2023-09-12T12:31:21;23.61;77.70
71173;DHT22;58875;51.996;4.504;2023-09-12T12:33:51;23.46;77.61
71173;DHT22;58875;51.996;4.504;2023-09-12T12:36:20;23.52;77.75
71173;DHT22;58875;51.996;4.504;2023-09-12T12:38:48;23.51;77.65
71173;DHT22;58875;51.996;4.504;2023-09-12T12:41:16;23.54;78.51
71173;DHT22;58875;51.996;4.504;2023-09-12T12:43:42;23.66;77.75
71173;DHT22;58875;51.996;4.504;2023-09-12T12:46:12;23.62;77.53
71173;DHT22;58875;51.996;4.504;2023-09-12T12:48:43;23.61;77.44
71173;DHT22;58875;51.996;4.504;2023-09-12T12:51:20;23.67;77.61
71173;DHT22;58875;51.996;4.504;2023-09-12T12:53:50;23.66;76.26
71173;DHT22;58875;51.996;4.504;2023-09-12T12:56:18;23.61;76.55
71173;DHT22;58875;51.996;4.504;2023-09-12T12:58:48;23.66;76.73
71173;DHT22;58875;51.996;4.504;2023-09-12T13:01:15;23.69;76.24
71173;DHT22;58875;51.996;4.504;2023-09-12T13:03:40;23.61;76.98
71173;DHT22;58875;51.996;4.504;2023-09-12T13:06:06;23.37;74.45
71173;DHT22;58875;51.996;4.504;2023-09-12T13:08:33;23.18;76.08
71173;DHT22;58875;51.996;4.504;2023-09-12T13:11:00;23.26;76.16
71173;DHT22;58875;51.996;4.504;2023-09-12T13:13:27;23.29;76.28
71173;DHT22;58875;51.996;4.504;2023-09-12T13:15:52;23.45;76.38
71173;DHT22;58875;51.996;4.504;2023-09-12T13:18:18;23.56;75.67
71173;DHT22;58875;51.996;4.504;2023-09-12T13:20:43;23.61;75.10
71173;DHT22;58875;51.996;4.504;2023-09-12T13:23:09;23.65;75.70
71173;DHT22;58875;51.996;4.504;2023-09-12T13:25:35;23.76;76.75
71173;DHT22;58875;51.996;4.504;2023-09-12T13:28:01;23.69;75.76
71173;DHT22;58875;51.996;4.504;2023-09-12T13:30:26;23.38;75.07
71173;DHT22;58875;51.996;4.504;2023-09-12T13:32:52;23.22;75.76
71173;DHT22;58875;51.996;4.504;2023-09-12T13:35:17;23.05;75.76
71173;DHT22;58875;51.996;4.504;2023-09-12T13:37:43;23.01;77.00
71173;DHT22;58875;51.996;4.504;2023-09-12T13:40:09;23.04;76.87
71173;DHT22;58875;51.996;4.504;2023-09-12T13:42:34;23.01;77.65
71173;DHT22;58875;51.996;4.504;2023-09-12T13:45:00;23.03;77.44
71173;DHT22;58875;51.996;4.504;2023-09-12T13:47:25;23.08;78.07
71173;DHT22;58875;51.996;4.504;2023-09-12T13:49:51;23.19;76.76
71173;DHT22;58875;51.996;4.504;2023-09-12T13:52:19;23.18;76.72
71173;DHT22;58875;51.996;4.504;2023-09-12T13:54:45;23.14;76.28
71173;DHT22;58875;51.996;4.504;2023-09-12T13:57:10;22.93;76.02
71173;DHT22;58875;51.996;4.504;2023-09-12T13:59:36;22.81;77.38
71173;DHT22;58875;51.996;4.504;2023-09-12T14:02:01;22.74;77.04
71173;DHT22;58875;51.996;4.504;2023-09-12T14:04:27;22.59;76.41
71173;DHT22;58875;51.996;4.504;2023-09-12T14:06:52;22.47;76.58
71173;DHT22;58875;51.996;4.504;2023-09-12T14:09:18;22.39;76.17
71173;DHT22;58875;51.996;4.504;2023-09-12T14:11:43;22.12;79.04
71173;DHT22;58875;51.996;4.504;2023-09-12T14:14:09;22.05;79.53
71173;DHT22;58875;51.996;4.504;2023-09-12T14:16:34;21.81;79.66
71173;DHT22;58875;51.996;4.504;2023-09-12T14:19:00;21.65;80.53
71173;DHT22;58875;51.996;4.504;2023-09-12T14:21:28;21.57;80.72
71173;DHT22;58875;51.996;4.504;2023-09-12T14:23:54;21.51;81.32
71173;DHT22;58875;51.996;4.504;2023-09-12T14:26:19;21.55;82.00
71173;DHT22;58875;51.996;4.504;2023-09-12T14:28:44;21.62;81.80
71173;DHT22;58875;51.996;4.504;2023-09-12T14:31:11;21.69;82.06
71173;DHT22;58875;51.996;4.504;2023-09-12T14:33:42;21.73;81.78
71173;DHT22;58875;51.996;4.504;2023-09-12T14:36:09;21.69;82.02
71173;DHT22;58875;51.996;4.504;2023-09-12T14:38:35;21.81;82.03
71173;DHT22;58875;51.996;4.504;2023-09-12T14:41:01;21.89;81.93
71173;DHT22;58875;51.996;4.504;2023-09-12T14:43:26;21.95;81.88
71173;DHT22;58875;51.996;4.504;2023-09-12T14:45:56;22.06;82.42
71173;DHT22;58875;51.996;4.504;2023-09-12T14:48:22;22.29;80.55
71173;DHT22;58875;51.996;4.504;2023-09-12T14:50:47;22.20;81.67
71173;DHT22;58875;51.996;4.504;2023-09-12T14:53:17;22.47;81.27
71173;DHT22;58875;51.996;4.504;2023-09-12T14:55:43;22.47;80.97
71173;DHT22;58875;51.996;4.504;2023-09-12T14:58:09;22.40;80.74
71173;DHT22;58875;51.996;4.504;2023-09-12T15:00:34;22.54;80.69
71173;DHT22;58875;51.996;4.504;2023-09-12T15:03:01;22.64;80.97
71173;DHT22;58875;51.996;4.504;2023-09-12T15:05:27;22.76;80.80
71173;DHT22;58875;51.996;4.504;2023-09-12T15:07:52;22.78;80.56
71173;DHT22;58875;51.996;4.504;2023-09-12T15:10:19;22.71;79.09
71173;DHT22;58875;51.996;4.504;2023-09-12T15:12:44;22.74;79.23
71173;DHT22;58875;51.996;4.504;2023-09-12T15:15:10;22.80;80.30
71173;DHT22;58875;51.996;4.504;2023-09-12T15:17:36;22.93;80.52
71173;DHT22;58875;51.996;4.504;2023-09-12T15:20:02;22.97;79.64
71173;DHT22;58875;51.996;4.504;2023-09-12T15:22:31;22.91;78.44
71173;DHT22;58875;51.996;4.504;2023-09-12T15:24:57;22.81;78.63
71173;DHT22;58875;51.996;4.504;2023-09-12T15:27:22;22.80;78.97
71173;DHT22;58875;51.996;4.504;2023-09-12T15:29:49;22.84;79.33
71173;DHT22;58875;51.996;4.504;2023-09-12T15:32:14;22.83;79.29
71173;DHT22;58875;51.996;4.504;2023-09-12T15:34:40;22.88;79.84
71173;DHT22;58875;51.996;4.504;2023-09-12T15:37:11;22.98;78.99
71173;DHT22;58875;51.996;4.504;2023-09-12T15:39:37;23.01;78.83
71173;DHT22;58875;51.996;4.504;2023-09-12T15:42:02;23.03;79.37
71173;DHT22;58875;51.996;4.504;2023-09-12T15:44:28;23.07;79.23
71173;DHT22;58875;51.996;4.504;2023-09-12T15:46:54;23.18;78.79
71173;DHT22;58875;51.996;4.504;2023-09-12T15:49:20;23.21;78.36
71173;DHT22;58875;51.996;4.504;2023-09-12T15:51:46;23.25;78.58